sensor_id;sensor_type;location;lat;lon;timestamp;P1;durP1;ratioP1;P2;durP2;ratioP2
28822;SDS011;15961;54.678;9.110;2023-05-07T00:00:18;0.10;;;0.10;;
28822;SDS011;15961;54.678;9.110;2023-05-07T00:02:44;0.20;;;0.20;;
28822;SDS011;15961;54.678;9.110;2023-05-07T00:05:11;0.20;;;0.20;;
28822;SDS011;15961;54.678;9.110;2023-05-07T00:07:36;0.10;;;0.10;;
28822;SDS011;15961;54.678;9.110;2023-05-07T00:10:03;0.10;;;0.10;;
28822;SDS011;15961;54.678;9.110;2023-05-07T00:12:29;0.20;;;0.20;;
28822;SDS011;15961;54.678;9.110;2023-05-07T00:14:58;0.20;;;0.20;;
28822;SDS011;15961;54.678;9.110;2023-05-07T00:17:28;0.20;;;0.20;;
28822;SDS011;15961;54.678;9.110;2023-05-07T00:19:54;0.20;;;0.20;;
28822;SDS011;15961;54.678;9.110;2023-05-07T00:22:19;0.17;;;0.17;;
28822;SDS011;15961;54.678;9.110;2023-05-07T00:24:45;0.17;;;0.17;;
28822;SDS011;15961;54.678;9.110;2023-05-07T00:27:10;0.10;;;0.10;;
28822;SDS011;15961;54.678;9.110;2023-05-07T00:29:36;0.20;;;0.20;;
28822;SDS011;15961;54.678;9.110;2023-05-07T00:32:01;0.10;;;0.10;;
28822;SDS011;15961;54.678;9.110;2023-05-07T00:34:27;0.20;;;0.20;;
28822;SDS011;15961;54.678;9.110;2023-05-07T00:36:52;0.10;;;0.10;;
28822;SDS011;15961;54.678;9.110;2023-05-07T00:39:18;0.20;;;0.20;;
28822;SDS011;15961;54.678;9.110;2023-05-07T00:41:44;0.20;;;0.20;;
28822;SDS011;15961;54.678;9.110;2023-05-07T00:44:09;0.17;;;0.17;;
28822;SDS011;15961;54.678;9.110;2023-05-07T00:46:35;0.20;;;0.20;;
28822;SDS011;15961;54.678;9.110;2023-05-07T00:49:00;0.20;;;0.20;;
28822;SDS011;15961;54.678;9.110;2023-05-07T00:51:27;0.20;;;0.20;;
28822;SDS011;15961;54.678;9.110;2023-05-07T00:53:53;0.10;;;0.10;;
28822;SDS011;15961;54.678;9.110;2023-05-07T00:56:20;0.22;;;0.22;;
28822;SDS011;15961;54.678;9.110;2023-05-07T00:58:46;0.20;;;0.20;;
28822;SDS011;15961;54.678;9.110;2023-05-07T01:01:12;0.17;;;0.17;;
28822;SDS011;15961;54.678;9.110;2023-05-07T01:03:38;0.10;;;0.10;;
28822;SDS011;15961;54.678;9.110;2023-05-07T01:06:03;0.10;;;0.10;;
28822;SDS011;15961;54.678;9.110;2023-05-07T01:08:31;0.10;;;0.10;;
28822;SDS011;15961;54.678;9.110;2023-05-07T01:10:57;0.10;;;0.10;;
28822;SDS011;15961;54.678;9.110;2023-05-07T01:13:24;0.20;;;0.20;;
28822;SDS011;15961;54.678;9.110;2023-05-07T01:15:50;0.20;;;0.20;;
28822;SDS011;15961;54.678;9.110;2023-05-07T01:18:16;0.17;;;0.17;;
28822;SDS011;15961;54.678;9.110;2023-05-07T01:20:41;0.20;;;0.20;;
28822;SDS011;15961;54.678;9.110;2023-05-07T01:23:07;0.20;;;0.20;;
28822;SDS011;15961;54.678;9.110;2023-05-07T01:25:33;0.17;;;0.17;;
28822;SDS011;15961;54.678;9.110;2023-05-07T01:27:59;0.20;;;0.20;;
28822;SDS011;15961;54.678;9.110;2023-05-07T01:30:26;0.20;;;0.20;;
28822;SDS011;15961;54.678;9.110;2023-05-07T01:32:56;0.20;;;0.20;;
28822;SDS011;15961;54.678;9.110;2023-05-07T01:35:27;0.20;;;0.20;;
28822;SDS011;15961;54.678;9.110;2023-05-07T01:37:57;0.10;;;0.10;;
28822;SDS011;15961;54.678;9.110;2023-05-07T01:40:23;0.10;;;0.10;;
28822;SDS011;15961;54.678;9.110;2023-05-07T01:42:50;0.20;;;0.20;;
28822;SDS011;15961;54.678;9.110;2023-05-07T01:45:17;0.20;;;0.20;;
28822;SDS011;15961;54.678;9.110;2023-05-07T01:47:42;0.20;;;0.20;;
28822;SDS011;15961;54.678;9.110;2023-05-07T01:50:08;0.15;;;0.15;;
28822;SDS011;15961;54.678;9.110;2023-05-07T01:52:35;0.20;;;0.20;;
28822;SDS011;15961;54.678;9.110;2023-05-07T01:55:02;0.20;;;0.20;;
28822;SDS011;15961;54.678;9.110;2023-05-07T01:57:29;0.20;;;0.20;;
28822;SDS011;15961;54.678;9.110;2023-05-07T01:59:55;0.20;;;0.20;;
28822;SDS011;15961;54.678;9.110;2023-05-07T02:02:20;0.20;;;0.20;;
28822;SDS011;15961;54.678;9.110;2023-05-07T02:04:46;0.20;;;0.20;;
28822;SDS011;15961;54.678;9.110;2023-05-07T02:07:12;0.10;;;0.10;;
28822;SDS011;15961;54.678;9.110;2023-05-07T02:09:37;0.13;;;0.13;;
28822;SDS011;15961;54.678;9.110;2023-05-07T02:12:03;0.10;;;0.10;;
28822;SDS011;15961;54.678;9.110;2023-05-07T02:14:28;0.15;;;0.15;;
28822;SDS011;15961;54.678;9.110;2023-05-07T02:16:54;0.20;;;0.20;;
28822;SDS011;15961;54.678;9.110;2023-05-07T02:19:19;0.20;;;0.20;;
28822;SDS011;15961;54.678;9.110;2023-05-07T02:21:46;0.10;;;0.10;;
28822;SDS011;15961;54.678;9.110;2023-05-07T02:24:12;0.20;;;0.20;;
28822;SDS011;15961;54.678;9.110;2023-05-07T02:26:38;0.20;;;0.20;;
28822;SDS011;15961;54.678;9.110;2023-05-07T02:29:04;0.20;;;0.20;;
28822;SDS011;15961;54.678;9.110;2023-05-07T02:31:30;0.20;;;0.20;;
28822;SDS011;15961;54.678;9.110;2023-05-07T02:33:55;0.20;;;0.20;;
28822;SDS011;15961;54.678;9.110;2023-05-07T02:36:21;0.20;;;0.20;;
28822;SDS011;15961;54.678;9.110;2023-05-07T02:38:46;0.20;;;0.20;;
28822;SDS011;15961;54.678;9.110;2023-05-07T02:41:12;0.20;;;0.20;;
28822;SDS011;15961;54.678;9.110;2023-05-07T02:43:37;0.20;;;0.20;;
28822;SDS011;15961;54.678;9.110;2023-05-07T02:46:03;0.10;;;0.10;;
28822;SDS011;15961;54.678;9.110;2023-05-07T02:48:30;0.20;;;0.20;;
28822;SDS011;15961;54.678;9.110;2023-05-07T02:50:56;0.20;;;0.20;;
28822;SDS011;15961;54.678;9.110;2023-05-07T02:53:22;0.30;;;0.30;;
28822;SDS011;15961;54.678;9.110;2023-05-07T02:55:50;0.20;;;0.20;;
28822;SDS011;15961;54.678;9.110;2023-05-07T02:58:15;0.20;;;0.20;;
28822;SDS011;15961;54.678;9.110;2023-05-07T03:00:41;0.22;;;0.22;;
28822;SDS011;15961;54.678;9.110;2023-05-07T03:03:07;0.20;;;0.20;;
28822;SDS011;15961;54.678;9.110;2023-05-07T03:05:33;0.20;;;0.20;;
28822;SDS011;15961;54.678;9.110;2023-05-07T03:07:59;0.20;;;0.20;;
28822;SDS011;15961;54.678;9.110;2023-05-07T03:10:24;0.10;;;0.10;;
28822;SDS011;15961;54.678;9.110;2023-05-07T03:12:50;0.10;;;0.10;;
28822;SDS011;15961;54.678;9.110;2023-05-07T03:15:15;0.20;;;0.20;;
28822;SDS011;15961;54.678;9.110;2023-05-07T03:17:41;0.20;;;0.20;;
28822;SDS011;15961;54.678;9.110;2023-05-07T03:20:07;0.15;;;0.15;;
28822;SDS011;15961;54.678;9.110;2023-05-07T03:22:34;0.20;;;0.20;;
28822;SDS011;15961;54.678;9.110;2023-05-07T03:24:59;0.20;;;0.20;;
28822;SDS011;15961;54.678;9.110;2023-05-07T03:27:25;0.15;;;0.15;;
28822;SDS011;15961;54.678;9.110;2023-05-07T03:29:51;0.20;;;0.20;;
28822;SDS011;15961;54.678;9.110;2023-05-07T03:32:16;0.20;;;0.20;;
28822;SDS011;15961;54.678;9.110;2023-05-07T03:34:42;0.10;;;0.10;;
28822;SDS011;15961;54.678;9.110;2023-05-07T03:37:07;0.10;;;0.10;;
28822;SDS011;15961;54.678;9.110;2023-05-07T03:39:33;0.10;;;0.10;;
28822;SDS011;15961;54.678;9.110;2023-05-07T03:41:58;0.10;;;0.10;;
28822;SDS011;15961;54.678;9.110;2023-05-07T03:44:24;0.20;;;0.20;;
28822;SDS011;15961;54.678;9.110;2023-05-07T03:46:49;0.20;;;0.20;;
28822;SDS011;15961;54.678;9.110;2023-05-07T03:49:15;0.10;;;0.10;;
28822;SDS011;15961;54.678;9.110;2023-05-07T03:51:40;0.20;;;0.20;;
28822;SDS011;15961;54.678;9.110;2023-05-07T03:54:06;0.20;;;0.20;;
28822;SDS011;15961;54.678;9.110;2023-05-07T03:56:32;0.17;;;0.17;;
28822;SDS011;15961;54.678;9.110;2023-05-07T03:58:57;0.20;;;0.20;;
28822;SDS011;15961;54.678;9.110;2023-05-07T04:01:23;0.20;;;0.20;;
28822;SDS011;15961;54.678;9.110;2023-05-07T04:03:48;0.17;;;0.17;;
28822;SDS011;15961;54.678;9.110;2023-05-07T04:06:15;0.10;;;0.10;;
28822;SDS011;15961;54.678;9.110;2023-05-07T04:08:42;0.20;;;0.20;;
28822;SDS011;15961;54.678;9.110;2023-05-07T04:11:07;0.20;;;0.20;;
28822;SDS011;15961;54.678;9.110;2023-05-07T04:13:33;0.13;;;0.13;;
28822;SDS011;15961;54.678;9.110;2023-05-07T04:16:00;0.20;;;0.20;;
28822;SDS011;15961;54.678;9.110;2023-05-07T04:18:27;0.10;;;0.10;;
28822;SDS011;15961;54.678;9.110;2023-05-07T04:20:52;0.10;;;0.10;;
28822;SDS011;15961;54.678;9.110;2023-05-07T04:23:18;0.20;;;0.20;;
28822;SDS011;15961;54.678;9.110;2023-05-07T04:25:43;0.20;;;0.20;;
28822;SDS011;15961;54.678;9.110;2023-05-07T04:28:10;0.20;;;0.20;;
28822;SDS011;15961;54.678;9.110;2023-05-07T04:30:36;0.10;;;0.10;;
28822;SDS011;15961;54.678;9.110;2023-05-07T04:33:02;0.20;;;0.20;;
28822;SDS011;15961;54.678;9.110;2023-05-07T04:35:27;0.20;;;0.20;;
28822;SDS011;15961;54.678;9.110;2023-05-07T04:37:53;0.10;;;0.10;;
28822;SDS011;15961;54.678;9.110;2023-05-07T04:40:18;0.20;;;0.20;;
28822;SDS011;15961;54.678;9.110;2023-05-07T04:42:44;0.20;;;0.20;;
28822;SDS011;15961;54.678;9.110;2023-05-07T04:45:10;0.10;;;0.10;;
28822;SDS011;15961;54.678;9.110;2023-05-07T04:47:35;0.20;;;0.20;;
28822;SDS011;15961;54.678;9.110;2023-05-07T04:50:01;0.20;;;0.20;;
28822;SDS011;15961;54.678;9.110;2023-05-07T04:52:27;0.10;;;0.10;;
28822;SDS011;15961;54.678;9.110;2023-05-07T04:54:52;0.20;;;0.20;;
28822;SDS011;15961;54.678;9.110;2023-05-07T04:57:18;0.10;;;0.10;;
28822;SDS011;15961;54.678;9.110;2023-05-07T04:59:44;0.10;;;0.10;;
28822;SDS011;15961;54.678;9.110;2023-05-07T05:02:10;0.20;;;0.20;;
28822;SDS011;15961;54.678;9.110;2023-05-07T05:04:35;0.10;;;0.10;;
28822;SDS011;15961;54.678;9.110;2023-05-07T05:07:01;0.20;;;0.20;;
28822;SDS011;15961;54.678;9.110;2023-05-07T05:09:29;0.10;;;0.10;;
28822;SDS011;15961;54.678;9.110;2023-05-07T05:11:55;0.20;;;0.20;;
28822;SDS011;15961;54.678;9.110;2023-05-07T05:14:21;0.20;;;0.20;;
28822;SDS011;15961;54.678;9.110;2023-05-07T05:16:46;0.10;;;0.10;;
28822;SDS011;15961;54.678;9.110;2023-05-07T05:19:12;0.20;;;0.20;;
28822;SDS011;15961;54.678;9.110;2023-05-07T05:21:37;0.20;;;0.20;;
28822;SDS011;15961;54.678;9.110;2023-05-07T05:24:03;0.10;;;0.10;;
28822;SDS011;15961;54.678;9.110;2023-05-07T05:26:28;0.10;;;0.10;;
28822;SDS011;15961;54.678;9.110;2023-05-07T05:28:54;0.20;;;0.20;;
28822;SDS011;15961;54.678;9.110;2023-05-07T05:31:20;0.20;;;0.20;;
28822;SDS011;15961;54.678;9.110;2023-05-07T05:33:46;0.20;;;0.20;;
28822;SDS011;15961;54.678;9.110;2023-05-07T05:36:11;0.20;;;0.20;;
28822;SDS011;15961;54.678;9.110;2023-05-07T05:38:38;0.20;;;0.20;;
28822;SDS011;15961;54.678;9.110;2023-05-07T05:41:04;0.10;;;0.10;;
28822;SDS011;15961;54.678;9.110;2023-05-07T05:43:29;0.20;;;0.20;;
28822;SDS011;15961;54.678;9.110;2023-05-07T05:45:55;0.20;;;0.20;;
28822;SDS011;15961;54.678;9.110;2023-05-07T05:48:21;0.15;;;0.15;;
28822;SDS011;15961;54.678;9.110;2023-05-07T05:50:47;0.20;;;0.20;;
28822;SDS011;15961;54.678;9.110;2023-05-07T05:53:13;0.13;;;0.13;;
28822;SDS011;15961;54.678;9.110;2023-05-07T05:55:38;0.20;;;0.20;;
28822;SDS011;15961;54.678;9.110;2023-05-07T05:58:04;0.17;;;0.17;;
28822;SDS011;15961;54.678;9.110;2023-05-07T06:00:30;0.10;;;0.10;;
28822;SDS011;15961;54.678;9.110;2023-05-07T06:02:55;0.10;;;0.10;;
28822;SDS011;15961;54.678;9.110;2023-05-07T06:05:21;0.20;;;0.20;;
28822;SDS011;15961;54.678;9.110;2023-05-07T06:07:46;0.10;;;0.10;;
28822;SDS011;15961;54.678;9.110;2023-05-07T06:10:12;0.20;;;0.20;;
28822;SDS011;15961;54.678;9.110;2023-05-07T06:12:38;0.20;;;0.20;;
28822;SDS011;15961;54.678;9.110;2023-05-07T06:15:04;0.13;;;0.13;;
28822;SDS011;15961;54.678;9.110;2023-05-07T06:17:30;0.20;;;0.20;;
28822;SDS011;15961;54.678;9.110;2023-05-07T06:19:56;0.13;;;0.13;;
28822;SDS011;15961;54.678;9.110;2023-05-07T06:22:21;0.20;;;0.20;;
28822;SDS011;15961;54.678;9.110;2023-05-07T06:24:47;0.20;;;0.20;;
28822;SDS011;15961;54.678;9.110;2023-05-07T06:27:12;0.20;;;0.20;;
28822;SDS011;15961;54.678;9.110;2023-05-07T06:29:38;0.10;;;0.10;;
28822;SDS011;15961;54.678;9.110;2023-05-07T06:32:10;0.10;;;0.10;;
28822;SDS011;15961;54.678;9.110;2023-05-07T06:34:37;0.20;;;0.20;;
28822;SDS011;15961;54.678;9.110;2023-05-07T06:37:03;0.20;;;0.20;;
28822;SDS011;15961;54.678;9.110;2023-05-07T06:39:29;0.10;;;0.10;;
28822;SDS011;15961;54.678;9.110;2023-05-07T06:41:55;0.20;;;0.20;;
28822;SDS011;15961;54.678;9.110;2023-05-07T06:44:21;0.20;;;0.20;;
28822;SDS011;15961;54.678;9.110;2023-05-07T06:46:46;0.30;;;0.30;;
28822;SDS011;15961;54.678;9.110;2023-05-07T06:49:12;0.20;;;0.20;;
28822;SDS011;15961;54.678;9.110;2023-05-07T06:51:38;0.20;;;0.20;;
28822;SDS011;15961;54.678;9.110;2023-05-07T06:54:03;0.20;;;0.20;;
28822;SDS011;15961;54.678;9.110;2023-05-07T06:56:29;0.20;;;0.20;;
28822;SDS011;15961;54.678;9.110;2023-05-07T06:58:55;0.20;;;0.20;;
28822;SDS011;15961;54.678;9.110;2023-05-07T07:01:21;0.20;;;0.20;;
28822;SDS011;15961;54.678;9.110;2023-05-07T07:03:47;0.20;;;0.20;;
28822;SDS011;15961;54.678;9.110;2023-05-07T07:06:12;0.20;;;0.20;;
28822;SDS011;15961;54.678;9.110;2023-05-07T07:08:38;0.10;;;0.10;;
28822;SDS011;15961;54.678;9.110;2023-05-07T07:11:04;0.20;;;0.20;;
28822;SDS011;15961;54.678;9.110;2023-05-07T07:13:30;0.10;;;0.10;;
28822;SDS011;15961;54.678;9.110;2023-05-07T07:15:56;0.20;;;0.20;;
28822;SDS011;15961;54.678;9.110;2023-05-07T07:18:21;0.20;;;0.20;;
28822;SDS011;15961;54.678;9.110;2023-05-07T07:20:47;0.20;;;0.20;;
28822;SDS011;15961;54.678;9.110;2023-05-07T07:23:13;0.20;;;0.20;;
28822;SDS011;15961;54.678;9.110;2023-05-07T07:25:39;0.20;;;0.20;;
28822;SDS011;15961;54.678;9.110;2023-05-07T07:28:05;0.10;;;0.10;;
28822;SDS011;15961;54.678;9.110;2023-05-07T07:30:30;0.20;;;0.20;;
28822;SDS011;15961;54.678;9.110;2023-05-07T07:32:56;0.20;;;0.20;;
28822;SDS011;15961;54.678;9.110;2023-05-07T07:35:27;0.15;;;0.15;;
28822;SDS011;15961;54.678;9.110;2023-05-07T07:37:53;0.20;;;0.20;;
28822;SDS011;15961;54.678;9.110;2023-05-07T07:40:18;0.10;;;0.10;;
28822;SDS011;15961;54.678;9.110;2023-05-07T07:42:44;0.20;;;0.20;;
28822;SDS011;15961;54.678;9.110;2023-05-07T07:45:10;0.20;;;0.20;;
28822;SDS011;15961;54.678;9.110;2023-05-07T07:47:35;0.20;;;0.20;;
28822;SDS011;15961;54.678;9.110;2023-05-07T07:50:01;0.20;;;0.20;;
28822;SDS011;15961;54.678;9.110;2023-05-07T07:52:26;0.10;;;0.10;;
28822;SDS011;15961;54.678;9.110;2023-05-07T07:54:52;0.20;;;0.20;;
28822;SDS011;15961;54.678;9.110;2023-05-07T07:57:17;0.10;;;0.10;;
28822;SDS011;15961;54.678;9.110;2023-05-07T07:59:43;0.20;;;0.20;;
28822;SDS011;15961;54.678;9.110;2023-05-07T08:02:09;0.20;;;0.20;;
28822;SDS011;15961;54.678;9.110;2023-05-07T08:04:34;0.10;;;0.10;;
28822;SDS011;15961;54.678;9.110;2023-05-07T08:07:00;0.20;;;0.20;;
28822;SDS011;15961;54.678;9.110;2023-05-07T08:09:25;0.20;;;0.20;;
28822;SDS011;15961;54.678;9.110;2023-05-07T08:11:51;0.20;;;0.20;;
28822;SDS011;15961;54.678;9.110;2023-05-07T08:14:17;0.20;;;0.20;;
28822;SDS011;15961;54.678;9.110;2023-05-07T08:16:43;0.20;;;0.20;;
28822;SDS011;15961;54.678;9.110;2023-05-07T08:19:08;0.10;;;0.10;;
28822;SDS011;15961;54.678;9.110;2023-05-07T08:21:38;0.20;;;0.20;;
28822;SDS011;15961;54.678;9.110;2023-05-07T08:24:04;0.20;;;0.20;;
28822;SDS011;15961;54.678;9.110;2023-05-07T08:26:30;0.20;;;0.20;;
28822;SDS011;15961;54.678;9.110;2023-05-07T08:28:55;0.20;;;0.20;;
28822;SDS011;15961;54.678;9.110;2023-05-07T08:31:21;0.20;;;0.20;;
28822;SDS011;15961;54.678;9.110;2023-05-07T08:33:47;0.20;;;0.20;;
28822;SDS011;15961;54.678;9.110;2023-05-07T08:36:12;0.10;;;0.10;;
28822;SDS011;15961;54.678;9.110;2023-05-07T08:38:38;0.10;;;0.10;;
28822;SDS011;15961;54.678;9.110;2023-05-07T08:41:05;0.10;;;0.10;;
28822;SDS011;15961;54.678;9.110;2023-05-07T08:43:32;0.17;;;0.17;;
28822;SDS011;15961;54.678;9.110;2023-05-07T08:46:00;0.20;;;0.20;;
28822;SDS011;15961;54.678;9.110;2023-05-07T08:48:27;0.20;;;0.20;;
28822;SDS011;15961;54.678;9.110;2023-05-07T08:50:55;0.10;;;0.10;;
28822;SDS011;15961;54.678;9.110;2023-05-07T08:53:21;0.10;;;0.10;;
28822;SDS011;15961;54.678;9.110;2023-05-07T08:55:46;0.10;;;0.10;;
28822;SDS011;15961;54.678;9.110;2023-05-07T08:58:13;0.10;;;0.10;;
28822;SDS011;15961;54.678;9.110;2023-05-07T09:00:39;0.20;;;0.20;;
28822;SDS011;15961;54.678;9.110;2023-05-07T09:03:06;0.20;;;0.20;;
28822;SDS011;15961;54.678;9.110;2023-05-07T09:05:31;0.13;;;0.13;;
28822;SDS011;15961;54.678;9.110;2023-05-07T09:08:01;0.10;;;0.10;;
28822;SDS011;15961;54.678;9.110;2023-05-07T09:10:27;0.10;;;0.10;;
28822;SDS011;15961;54.678;9.110;2023-05-07T09:12:54;0.10;;;0.10;;
28822;SDS011;15961;54.678;9.110;2023-05-07T09:15:19;0.20;;;0.20;;
28822;SDS011;15961;54.678;9.110;2023-05-07T09:17:45;0.10;;;0.10;;
28822;SDS011;15961;54.678;9.110;2023-05-07T09:20:11;0.10;;;0.10;;
28822;SDS011;15961;54.678;9.110;2023-05-07T09:22:37;0.15;;;0.15;;
28822;SDS011;15961;54.678;9.110;2023-05-07T09:25:03;0.20;;;0.20;;
28822;SDS011;15961;54.678;9.110;2023-05-07T09:27:30;0.10;;;0.10;;
28822;SDS011;15961;54.678;9.110;2023-05-07T09:29:56;0.20;;;0.20;;
28822;SDS011;15961;54.678;9.110;2023-05-07T09:32:22;0.10;;;0.10;;
28822;SDS011;15961;54.678;9.110;2023-05-07T09:34:47;0.20;;;0.20;;
28822;SDS011;15961;54.678;9.110;2023-05-07T09:37:13;0.15;;;0.15;;
28822;SDS011;15961;54.678;9.110;2023-05-07T09:39:42;0.10;;;0.10;;
28822;SDS011;15961;54.678;9.110;2023-05-07T09:42:09;0.20;;;0.20;;
28822;SDS011;15961;54.678;9.110;2023-05-07T09:44:36;0.20;;;0.20;;
28822;SDS011;15961;54.678;9.110;2023-05-07T09:47:06;0.10;;;0.10;;
28822;SDS011;15961;54.678;9.110;2023-05-07T09:49:35;0.10;;;0.10;;
28822;SDS011;15961;54.678;9.110;2023-05-07T09:52:02;0.20;;;0.20;;
28822;SDS011;15961;54.678;9.110;2023-05-07T09:54:31;0.20;;;0.20;;
28822;SDS011;15961;54.678;9.110;2023-05-07T09:56:58;0.10;;;0.10;;
28822;SDS011;15961;54.678;9.110;2023-05-07T09:59:27;0.10;;;0.10;;
28822;SDS011;15961;54.678;9.110;2023-05-07T10:01:56;0.20;;;0.20;;
28822;SDS011;15961;54.678;9.110;2023-05-07T10:04:23;0.17;;;0.17;;
28822;SDS011;15961;54.678;9.110;2023-05-07T10:06:51;0.10;;;0.10;;
28822;SDS011;15961;54.678;9.110;2023-05-07T10:09:16;0.20;;;0.20;;
28822;SDS011;15961;54.678;9.110;2023-05-07T10:11:43;0.10;;;0.10;;
28822;SDS011;15961;54.678;9.110;2023-05-07T10:14:09;0.20;;;0.20;;
28822;SDS011;15961;54.678;9.110;2023-05-07T10:16:36;0.20;;;0.20;;
28822;SDS011;15961;54.678;9.110;2023-05-07T10:19:02;0.10;;;0.10;;
28822;SDS011;15961;54.678;9.110;2023-05-07T10:21:29;0.10;;;0.10;;
28822;SDS011;15961;54.678;9.110;2023-05-07T10:24:03;0.10;;;0.10;;
28822;SDS011;15961;54.678;9.110;2023-05-07T10:26:35;0.10;;;0.10;;
28822;SDS011;15961;54.678;9.110;2023-05-07T10:29:03;0.20;;;0.20;;
28822;SDS011;15961;54.678;9.110;2023-05-07T10:34:38;0.20;;;0.20;;
28822;SDS011;15961;54.678;9.110;2023-05-07T10:37:08;0.10;;;0.10;;
28822;SDS011;15961;54.678;9.110;2023-05-07T10:39:35;0.10;;;0.10;;
28822;SDS011;15961;54.678;9.110;2023-05-07T10:42:11;0.10;;;0.10;;
28822;SDS011;15961;54.678;9.110;2023-05-07T10:44:37;0.10;;;0.10;;
28822;SDS011;15961;54.678;9.110;2023-05-07T10:47:10;0.10;;;0.10;;
28822;SDS011;15961;54.678;9.110;2023-05-07T10:54:41;0.10;;;0.10;;
28822;SDS011;15961;54.678;9.110;2023-05-07T11:00:00;0.10;;;0.10;;
28822;SDS011;15961;54.678;9.110;2023-05-07T11:05:32;0.20;;;0.20;;
28822;SDS011;15961;54.678;9.110;2023-05-07T11:07:59;0.10;;;0.10;;
28822;SDS011;15961;54.678;9.110;2023-05-07T11:13:13;0.10;;;0.10;;
28822;SDS011;15961;54.678;9.110;2023-05-07T11:15:41;0.10;;;0.10;;
28822;SDS011;15961;54.678;9.110;2023-05-07T11:18:09;0.10;;;0.10;;
28822;SDS011;15961;54.678;9.110;2023-05-07T11:21:18;0.10;;;0.10;;
28822;SDS011;15961;54.678;9.110;2023-05-07T11:26:03;0.10;;;0.10;;
28822;SDS011;15961;54.678;9.110;2023-05-07T11:28:30;0.10;;;0.10;;
28822;SDS011;15961;54.678;9.110;2023-05-07T11:31:01;0.10;;;0.10;;
28822;SDS011;15961;54.678;9.110;2023-05-07T11:33:28;0.10;;;0.10;;
28822;SDS011;15961;54.678;9.110;2023-05-07T11:35:54;0.10;;;0.10;;
28822;SDS011;15961;54.678;9.110;2023-05-07T11:38:21;0.10;;;0.10;;
28822;SDS011;15961;54.678;9.110;2023-05-07T11:43:16;0.10;;;0.10;;
28822;SDS011;15961;54.678;9.110;2023-05-07T11:45:41;0.10;;;0.10;;
28822;SDS011;15961;54.678;9.110;2023-05-07T11:48:07;0.10;;;0.10;;
28822;SDS011;15961;54.678;9.110;2023-05-07T11:50:32;0.17;;;0.17;;
28822;SDS011;15961;54.678;9.110;2023-05-07T11:52:58;0.10;;;0.10;;
28822;SDS011;15961;54.678;9.110;2023-05-07T11:55:24;0.10;;;0.10;;
28822;SDS011;15961;54.678;9.110;2023-05-07T11:57:50;0.10;;;0.10;;
28822;SDS011;15961;54.678;9.110;2023-05-07T12:00:17;0.10;;;0.10;;
28822;SDS011;15961;54.678;9.110;2023-05-07T12:02:43;0.10;;;0.10;;
28822;SDS011;15961;54.678;9.110;2023-05-07T12:05:10;0.10;;;0.10;;
28822;SDS011;15961;54.678;9.110;2023-05-07T12:07:36;0.05;;;0.05;;
28822;SDS011;15961;54.678;9.110;2023-05-07T12:10:07;0.10;;;0.10;;
28822;SDS011;15961;54.678;9.110;2023-05-07T12:12:39;0.10;;;0.10;;
28822;SDS011;15961;54.678;9.110;2023-05-07T12:15:06;0.10;;;0.10;;
28822;SDS011;15961;54.678;9.110;2023-05-07T12:17:32;0.00;;;0.00;;
28822;SDS011;15961;54.678;9.110;2023-05-07T12:19:59;0.10;;;0.10;;
28822;SDS011;15961;54.678;9.110;2023-05-07T12:22:25;0.10;;;0.10;;
28822;SDS011;15961;54.678;9.110;2023-05-07T12:24:57;0.00;;;0.00;;
28822;SDS011;15961;54.678;9.110;2023-05-07T12:27:23;0.10;;;0.10;;
28822;SDS011;15961;54.678;9.110;2023-05-07T12:29:49;0.03;;;0.03;;
28822;SDS011;15961;54.678;9.110;2023-05-07T12:32:21;0.10;;;0.10;;
28822;SDS011;15961;54.678;9.110;2023-05-07T12:34:50;0.00;;;0.00;;
28822;SDS011;15961;54.678;9.110;2023-05-07T12:37:16;0.10;;;0.10;;
28822;SDS011;15961;54.678;9.110;2023-05-07T12:39:48;0.10;;;0.10;;
28822;SDS011;15961;54.678;9.110;2023-05-07T12:42:28;0.00;;;0.00;;
28822;SDS011;15961;54.678;9.110;2023-05-07T12:45:00;0.10;;;0.10;;
28822;SDS011;15961;54.678;9.110;2023-05-07T12:47:32;0.00;;;0.00;;
28822;SDS011;15961;54.678;9.110;2023-05-07T12:49:58;0.00;;;0.00;;
28822;SDS011;15961;54.678;9.110;2023-05-07T12:52:24;0.00;;;0.00;;
28822;SDS011;15961;54.678;9.110;2023-05-07T12:54:50;0.10;;;0.10;;
28822;SDS011;15961;54.678;9.110;2023-05-07T12:57:15;0.00;;;0.00;;
28822;SDS011;15961;54.678;9.110;2023-05-07T12:59:45;0.00;;;0.00;;
28822;SDS011;15961;54.678;9.110;2023-05-07T13:02:10;0.00;;;0.00;;
28822;SDS011;15961;54.678;9.110;2023-05-07T13:04:36;0.10;;;0.10;;
28822;SDS011;15961;54.678;9.110;2023-05-07T13:07:02;0.00;;;0.00;;
28822;SDS011;15961;54.678;9.110;2023-05-07T13:09:28;0.00;;;0.00;;
28822;SDS011;15961;54.678;9.110;2023-05-07T13:11:54;0.00;;;0.00;;
28822;SDS011;15961;54.678;9.110;2023-05-07T13:14:20;0.08;;;0.08;;
28822;SDS011;15961;54.678;9.110;2023-05-07T13:16:45;0.00;;;0.00;;
28822;SDS011;15961;54.678;9.110;2023-05-07T13:19:11;0.00;;;0.00;;
28822;SDS011;15961;54.678;9.110;2023-05-07T13:21:37;0.00;;;0.00;;
28822;SDS011;15961;54.678;9.110;2023-05-07T13:24:03;0.00;;;0.00;;
28822;SDS011;15961;54.678;9.110;2023-05-07T13:26:29;0.00;;;0.00;;
28822;SDS011;15961;54.678;9.110;2023-05-07T13:28:56;0.00;;;0.00;;
28822;SDS011;15961;54.678;9.110;2023-05-07T13:31:21;0.00;;;0.00;;
28822;SDS011;15961;54.678;9.110;2023-05-07T13:33:47;0.00;;;0.00;;
28822;SDS011;15961;54.678;9.110;2023-05-07T13:36:12;0.00;;;0.00;;
28822;SDS011;15961;54.678;9.110;2023-05-07T13:38:41;0.00;;;0.00;;
28822;SDS011;15961;54.678;9.110;2023-05-07T13:41:06;0.00;;;0.00;;
28822;SDS011;15961;54.678;9.110;2023-05-07T13:43:32;0.00;;;0.00;;
28822;SDS011;15961;54.678;9.110;2023-05-07T13:45:58;0.00;;;0.00;;
28822;SDS011;15961;54.678;9.110;2023-05-07T13:48:24;0.00;;;0.00;;
28822;SDS011;15961;54.678;9.110;2023-05-07T13:50:50;0.00;;;0.00;;
28822;SDS011;15961;54.678;9.110;2023-05-07T13:53:16;0.00;;;0.00;;
28822;SDS011;15961;54.678;9.110;2023-05-07T13:55:43;0.00;;;0.00;;
28822;SDS011;15961;54.678;9.110;2023-05-07T13:58:09;0.00;;;0.00;;
28822;SDS011;15961;54.678;9.110;2023-05-07T14:00:34;0.00;;;0.00;;
28822;SDS011;15961;54.678;9.110;2023-05-07T14:03:00;0.00;;;0.00;;
28822;SDS011;15961;54.678;9.110;2023-05-07T14:05:27;0.00;;;0.00;;
28822;SDS011;15961;54.678;9.110;2023-05-07T14:07:53;0.00;;;0.00;;
28822;SDS011;15961;54.678;9.110;2023-05-07T14:10:20;0.00;;;0.00;;
28822;SDS011;15961;54.678;9.110;2023-05-07T14:12:46;0.00;;;0.00;;
28822;SDS011;15961;54.678;9.110;2023-05-07T14:15:11;0.00;;;0.00;;
28822;SDS011;15961;54.678;9.110;2023-05-07T14:17:37;0.00;;;0.00;;
28822;SDS011;15961;54.678;9.110;2023-05-07T14:20:03;0.00;;;0.00;;
28822;SDS011;15961;54.678;9.110;2023-05-07T14:22:31;0.00;;;0.00;;
28822;SDS011;15961;54.678;9.110;2023-05-07T14:24:56;0.00;;;0.00;;
28822;SDS011;15961;54.678;9.110;2023-05-07T14:27:22;0.00;;;0.00;;
28822;SDS011;15961;54.678;9.110;2023-05-07T14:29:47;0.00;;;0.00;;
28822;SDS011;15961;54.678;9.110;2023-05-07T14:32:16;0.00;;;0.00;;
28822;SDS011;15961;54.678;9.110;2023-05-07T14:34:45;0.00;;;0.00;;
28822;SDS011;15961;54.678;9.110;2023-05-07T14:37:10;0.00;;;0.00;;
28822;SDS011;15961;54.678;9.110;2023-05-07T14:39:36;0.00;;;0.00;;
28822;SDS011;15961;54.678;9.110;2023-05-07T14:42:02;0.00;;;0.00;;
28822;SDS011;15961;54.678;9.110;2023-05-07T14:44:28;0.00;;;0.00;;
28822;SDS011;15961;54.678;9.110;2023-05-07T14:46:53;0.00;;;0.00;;
28822;SDS011;15961;54.678;9.110;2023-05-07T14:49:19;0.00;;;0.00;;
28822;SDS011;15961;54.678;9.110;2023-05-07T14:51:45;0.00;;;0.00;;
28822;SDS011;15961;54.678;9.110;2023-05-07T14:54:12;0.00;;;0.00;;
28822;SDS011;15961;54.678;9.110;2023-05-07T14:56:38;0.00;;;0.00;;
28822;SDS011;15961;54.678;9.110;2023-05-07T14:59:04;0.00;;;0.00;;
28822;SDS011;15961;54.678;9.110;2023-05-07T15:01:30;0.00;;;0.00;;
28822;SDS011;15961;54.678;9.110;2023-05-07T15:03:55;0.00;;;0.00;;